Station Historical Data
Daily Summary for January 13, 2019 Units:  English    Metric   Both
« Previous Day
Next Day »
Daily Weekly Monthly Yearly Custom
  High: Low: Average:
Temperature: TemperatureF °F 36.7 °F 39 °F
Dew Point: DewpointF °F 35.4 °F 38.2 °F
Humidity: Humidity% 95% 96%
Wind Speed: WindSpeedMPHmph 0.0mph 0mph
Wind Gust: WindSpeedGustMPHmph - -
Wind- - South
Pressure: PressureIn in 30.14 in -
Precipitation: 0.08 in    
Historical Graphs
 
 
Tabular Data for January 13, 2019
Time Temperature Dew Point Pressure Wind Wind Speed Wind Gust Humidity Rainfall Rate (Hourly)
TemperatureF °F DewpointF °F PressureIn in Calm     Humidity% HourlyPrecipIn in
00:04 36.9 °F 35.8 °F 30.19 in Calm     96% 0.17 in
00:09 36.9 °F 35.8 °F 30.20 in Calm     96% 0.15 in
00:14 36.9 °F 35.8 °F 30.19 in Calm     96% 0.15 in
00:19 36.9 °F 35.6 °F 30.19 in Calm   7.0 mph 95% 0.14 in
00:24 36.9 °F 35.6 °F 30.19 in Calm   1.0 mph 95% 0.14 in
00:29 36.7 °F 35.6 °F 30.19 in Calm   1.0 mph 96% 0.14 in
00:34 36.7 °F 35.6 °F 30.19 in Calm   4.0 mph 96% 0.13 in
00:39 36.7 °F 35.6 °F 30.19 in Calm   4.0 mph 96% 0.10 in
00:44 36.7 °F 35.6 °F 30.19 in SE 0.9 mph 2.0 mph 96% 0.08 in
00:49 36.7 °F 35.4 °F 30.18 in SE 0.9 mph 2.0 mph 95% 0.08 in
00:54 36.7 °F 35.4 °F 30.19 in Calm     95% 0.07 in
00:59 36.7 °F 35.4 °F 30.18 in Calm   5.0 mph 95% 0.05 in
01:04 36.7 °F 35.4 °F 30.18 in Calm   1.0 mph 95% 0.04 in
01:09 36.7 °F 35.4 °F 30.18 in Calm   5.0 mph 95% 0.03 in
01:14 36.7 °F 35.4 °F 30.17 in Calm   4.0 mph 95% 0.02 in
01:19 36.7 °F 35.4 °F 30.17 in Calm   5.0 mph 95% 0.02 in
01:24 36.9 °F 35.6 °F 30.17 in Calm   1.0 mph 95% 0.01 in
01:29 36.7 °F 35.4 °F 30.16 in SSE 2.0 mph 4.0 mph 95% 0.00 in
01:34 36.9 °F 35.6 °F 30.17 in Calm   9.0 mph 95% 0.00 in
01:39 36.9 °F 35.6 °F 30.16 in Calm   4.0 mph 95% 0.00 in
01:44 36.9 °F 35.6 °F 30.16 in Calm   1.0 mph 95% 0.00 in
01:49 36.9 °F 35.6 °F 30.16 in Calm   6.0 mph 95% 0.00 in
01:54 36.9 °F 35.6 °F 30.16 in Calm     95% 0.00 in
01:59 36.9 °F 35.6 °F 30.16 in Calm     95% 0.00 in
02:04 36.9 °F 35.8 °F 30.16 in Calm     96% 0.00 in
02:09 36.9 °F 35.6 °F 30.16 in Calm     95% 0.00 in
02:14 36.9 °F 35.8 °F 30.16 in Calm     96% 0.00 in
02:19 37.0 °F 36.0 °F 30.16 in Calm   2.0 mph 96% 0.00 in
02:24 37.0 °F 36.0 °F 30.16 in Calm     96% 0.00 in
02:29 37.0 °F 36.0 °F 30.16 in Calm     96% 0.00 in
02:34 37.2 °F 36.1 °F 30.16 in Calm     96% 0.00 in
02:39 37.2 °F 36.1 °F 30.16 in Calm     96% 0.00 in
02:44 37.4 °F 36.3 °F 30.16 in Calm     96% 0.00 in
02:49 37.4 °F 36.3 °F 30.16 in Calm     96% 0.00 in
02:54 37.4 °F 36.3 °F 30.16 in Calm   1.0 mph 96% 0.00 in
02:59 37.4 °F 36.3 °F 30.16 in Calm   1.0 mph 96% 0.00 in
03:04 37.6 °F 36.5 °F 30.16 in Calm   1.0 mph 96% 0.00 in
03:09 37.6 °F 36.5 °F 30.16 in Calm     96% 0.00 in
03:14 37.6 °F 36.5 °F 30.16 in Calm     96% 0.00 in
03:19 37.6 °F 36.5 °F 30.17 in Calm     96% 0.01 in
03:24 37.4 °F 36.3 °F 30.16 in Calm     96% 0.01 in
03:29 37.2 °F 36.1 °F 30.16 in Calm     96% 0.01 in
03:34 37.2 °F 36.1 °F 30.17 in Calm     96% 0.01 in
03:39 37.2 °F 36.1 °F 30.17 in Calm     96% 0.01 in
03:44 37.2 °F 36.1 °F 30.16 in Calm     96% 0.01 in
03:48 37.2 °F 36.0 °F 30.16 in Calm   1.0 mph 95% 0.01 in
03:54 37.2 °F 36.1 °F 30.16 in Calm     96% 0.01 in
03:59 37.2 °F 36.1 °F 30.16 in Calm     96% 0.01 in
04:04 37.2 °F 36.1 °F 30.16 in Calm     96% 0.01 in
04:09 37.2 °F 36.0 °F 30.16 in Calm     95% 0.01 in
04:14 37.4 °F 36.3 °F 30.16 in Calm     96% 0.01 in
04:19 37.2 °F 36.0 °F 30.15 in Calm   2.0 mph 95% 0.00 in
04:24 37.2 °F 36.0 °F 30.15 in Calm   2.0 mph 95% 0.00 in
04:29 37.2 °F 36.0 °F 30.15 in Calm     95% 0.00 in
04:34 37.2 °F 36.1 °F 30.15 in Calm     96% 0.00 in
04:39 37.4 °F 36.3 °F 30.14 in Calm     96% 0.00 in
04:44 37.4 °F 36.1 °F 30.15 in Calm     95% 0.00 in
04:49 37.2 °F 36.1 °F 30.14 in Calm     96% 0.00 in
04:54 37.4 °F 36.3 °F 30.14 in Calm   1.0 mph 96% 0.00 in
04:59 37.6 °F 36.5 °F 30.14 in Calm     96% 0.00 in
05:04 37.6 °F 36.5 °F 30.14 in Calm     96% 0.00 in
05:09 37.6 °F 36.5 °F 30.14 in Calm     96% 0.00 in
05:14 37.6 °F 36.5 °F 30.14 in Calm     96% 0.00 in
05:19 37.8 °F 36.7 °F 30.14 in Calm     96% 0.00 in
05:24 37.8 °F 36.5 °F 30.14 in Calm     95% 0.00 in
05:29 37.8 °F 36.5 °F 30.14 in Calm     95% 0.00 in
05:34 37.8 °F 36.5 °F 30.14 in Calm     95% 0.00 in
05:39 37.8 °F 36.5 °F 30.14 in Calm     95% 0.00 in
05:44 37.8 °F 36.5 °F 30.14 in Calm     95% 0.00 in
05:49 37.8 °F 36.5 °F 30.14 in Calm     95% 0.00 in
05:54 37.8 °F 36.5 °F 30.14 in Calm     95% 0.00 in
05:59 37.8 °F 36.7 °F 30.14 in Calm     96% 0.00 in
06:04 37.8 °F 36.7 °F 30.14 in Calm     96% 0.00 in
06:09 37.8 °F 36.7 °F 30.14 in Calm     96% 0.00 in
06:13 37.9 °F 36.9 °F 30.15 in Calm     96% 0.00 in
06:19 37.9 °F 36.9 °F 30.14 in Calm     96% 0.00 in
06:24 37.9 °F 36.9 °F 30.15 in Calm     96% 0.00 in
06:29 37.9 °F 36.7 °F 30.15 in Calm     95% 0.00 in
06:34 37.9 °F 36.7 °F 30.15 in Calm     95% 0.00 in
06:39 37.9 °F 36.9 °F 30.14 in Calm     96% 0.00 in
06:44 37.9 °F 36.9 °F 30.14 in Calm     96% 0.00 in
06:49 37.9 °F 36.9 °F 30.15 in Calm     96% 0.00 in
06:54 37.9 °F 36.7 °F 30.15 in Calm     95% 0.00 in
06:59 37.9 °F 36.9 °F 30.14 in Calm     96% 0.00 in
07:04 37.9 °F 36.9 °F 30.15 in Calm     96% 0.00 in
07:09 37.9 °F 36.9 °F 30.15 in Calm     96% 0.00 in
07:14 37.9 °F 36.9 °F 30.15 in Calm     96% 0.00 in
07:19 37.9 °F 36.9 °F 30.15 in Calm     96% 0.00 in
07:24 37.9 °F 36.9 °F 30.15 in Calm     96% 0.00 in
07:29 37.9 °F 36.9 °F 30.15 in Calm     96% 0.00 in
07:34 37.9 °F 36.9 °F 30.15 in Calm     96% 0.00 in
07:39 38.1 °F 37.0 °F 30.15 in Calm     96% 0.00 in
07:44 38.1 °F 37.0 °F 30.14 in Calm     96% 0.00 in
07:49 37.9 °F 36.9 °F 30.14 in Calm     96% 0.00 in
07:54 38.1 °F 37.0 °F 30.14 in Calm     96% 0.00 in
07:59 38.1 °F 37.0 °F 30.14 in Calm     96% 0.00 in
08:04 38.1 °F 37.0 °F 30.15 in Calm     96% 0.00 in
08:09 38.1 °F 37.0 °F 30.15 in Calm     96% 0.00 in
08:14 38.1 °F 37.0 °F 30.16 in Calm     96% 0.00 in
08:19 38.1 °F 37.0 °F 30.16 in Calm     96% 0.00 in
08:24 38.1 °F 37.0 °F 30.16 in Calm     96% 0.00 in
08:29 38.3 °F 37.2 °F 30.16 in Calm     96% 0.00 in
08:34 38.3 °F 37.2 °F 30.16 in Calm     96% 0.00 in
08:39 38.5 °F 37.8 °F 30.16 in Calm     97% 0.00 in
08:44 38.5 °F 37.4 °F 30.16 in Calm     96% 0.00 in
08:49 38.5 °F 37.4 °F 30.16 in Calm     96% 0.00 in
08:54 38.7 °F 37.6 °F 30.16 in Calm     96% 0.00 in
08:59 38.7 °F 37.6 °F 30.17 in Calm     96% 0.00 in
09:04 38.7 °F 37.6 °F 30.17 in Calm     96% 0.00 in
09:09 38.8 °F 37.8 °F 30.18 in Calm     96% 0.00 in
09:14 38.7 °F 37.6 °F 30.18 in Calm     96% 0.00 in
09:19 38.8 °F 37.8 °F 30.19 in Calm     96% 0.00 in
09:24 38.8 °F 37.8 °F 30.18 in Calm     96% 0.00 in
09:29 38.8 °F 38.1 °F 30.19 in Calm     97% 0.00 in
09:34 38.8 °F 37.8 °F 30.18 in Calm     96% 0.00 in
09:39 39.0 °F 37.9 °F 30.18 in Calm     96% 0.00 in
09:44 39.0 °F 37.9 °F 30.19 in Calm     96% 0.00 in
09:48 39.0 °F 37.9 °F 30.19 in Calm     96% 0.00 in
09:54 39.2 °F 38.1 °F 30.19 in Calm     96% 0.00 in
09:59 39.2 °F 38.1 °F 30.19 in Calm     96% 0.00 in
10:04 39.4 °F 38.3 °F 30.19 in Calm     96% 0.00 in
10:09 39.4 °F 38.3 °F 30.20 in Calm     96% 0.00 in
10:14 39.6 °F 38.3 °F 30.20 in Calm     95% 0.00 in
10:19 39.6 °F 38.3 °F 30.20 in Calm     95% 0.00 in
10:24 39.6 °F 38.5 °F 30.21 in Calm     96% 0.00 in
10:29 39.7 °F 38.7 °F 30.21 in Calm     96% 0.00 in
10:34 39.7 °F 38.7 °F 30.21 in Calm     96% 0.00 in
10:39 39.7 °F 38.7 °F 30.21 in Calm     96% 0.00 in
10:44 39.7 °F 38.7 °F 30.21 in Calm     96% 0.00 in
10:49 39.7 °F 38.7 °F 30.21 in Calm     96% 0.00 in
10:54 39.7 °F 38.7 °F 30.21 in Calm     96% 0.00 in
10:59 39.6 °F 38.5 °F 30.21 in Calm     96% 0.00 in
11:04 39.6 °F 38.5 °F 30.21 in Calm     96% 0.00 in
11:09 39.4 °F 38.3 °F 30.21 in Calm     96% 0.00 in
11:14 39.4 °F 38.3 °F 30.21 in Calm     96% 0.00 in
11:19 39.4 °F 38.3 °F 30.21 in Calm     96% 0.00 in
11:24 39.4 °F 38.3 °F 30.21 in Calm     96% 0.00 in
11:29 39.4 °F 38.3 °F 30.21 in Calm     96% 0.00 in
11:34 39.4 °F 38.3 °F 30.21 in Calm     96% 0.00 in
11:39 39.2 °F 38.1 °F 30.21 in Calm     96% 0.00 in
11:44 39.2 °F 38.1 °F 30.21 in Calm     96% 0.00 in
11:49 39.2 °F 38.1 °F 30.20 in Calm     96% 0.01 in
11:54 39.0 °F 37.9 °F 30.20 in Calm     96% 0.01 in
11:59 39.0 °F 37.9 °F 30.20 in Calm     96% 0.01 in
12:04 39.0 °F 37.9 °F 30.20 in Calm     96% 0.01 in
12:09 38.8 °F 37.8 °F 30.19 in Calm     96% 0.01 in
12:14 39.0 °F 37.9 °F 30.19 in Calm     96% 0.01 in
12:19 38.8 °F 37.8 °F 30.19 in Calm     96% 0.01 in
12:24 38.8 °F 38.1 °F 30.19 in Calm     97% 0.01 in
12:29 39.0 °F 37.9 °F 30.19 in Calm     96% 0.01 in
12:34 39.0 °F 38.3 °F 30.19 in Calm     97% 0.01 in
12:39 39.0 °F 37.9 °F 30.18 in Calm     96% 0.01 in
12:44 39.0 °F 38.3 °F 30.18 in Calm     97% 0.01 in
12:49 39.2 °F 38.5 °F 30.18 in Calm     97% 0.00 in
12:54 39.0 °F 38.3 °F 30.18 in Calm     97% 0.00 in
12:59 39.2 °F 38.5 °F 30.18 in Calm     97% 0.00 in
13:04 39.2 °F 38.5 °F 30.18 in Calm     97% 0.00 in
13:09 39.2 °F 38.5 °F 30.18 in Calm     97% 0.00 in
13:14 39.4 °F 38.7 °F 30.18 in Calm     97% 0.00 in
13:19 39.4 °F 38.7 °F 30.18 in Calm     97% 0.00 in
13:24 39.4 °F 38.7 °F 30.18 in Calm     97% 0.00 in
13:29 39.4 °F 38.7 °F 30.18 in Calm     97% 0.00 in
13:34 39.6 °F 38.8 °F 30.18 in Calm     97% 0.00 in
13:39 39.6 °F 38.8 °F 30.18 in Calm     97% 0.00 in
13:44 39.6 °F 38.8 °F 30.18 in Calm     97% 0.00 in
13:49 39.6 °F 38.8 °F 30.17 in Calm     97% 0.00 in
13:54 39.7 °F 39.0 °F 30.17 in Calm     97% 0.00 in
13:59 39.7 °F 39.0 °F 30.18 in Calm     97% 0.00 in
14:04 39.7 °F 39.0 °F 30.17 in Calm     97% 0.00 in
14:09 39.6 °F 38.8 °F 30.17 in Calm     97% 0.00 in
14:14 39.7 °F 39.0 °F 30.17 in Calm     97% 0.00 in
14:19 39.7 °F 39.0 °F 30.17 in Calm     97% 0.00 in
14:24 39.7 °F 39.0 °F 30.17 in Calm     97% 0.00 in
14:29 39.7 °F 39.0 °F 30.18 in Calm     97% 0.00 in
14:34 39.7 °F 39.0 °F 30.18 in Calm     97% 0.00 in
14:39 39.9 °F 39.2 °F 30.18 in Calm     97% 0.00 in
14:44 39.9 °F 39.2 °F 30.18 in Calm     97% 0.00 in
14:49 39.9 °F 39.2 °F 30.18 in Calm     97% 0.00 in
14:54 40.3 °F 39.7 °F 30.18 in Calm     98% 0.00 in
14:59 40.3 °F 39.6 °F 30.18 in Calm     97% 0.00 in
15:04 40.3 °F 39.6 °F 30.18 in Calm     97% 0.00 in
15:09 40.3 °F 39.6 °F 30.18 in Calm     97% 0.00 in
15:14 40.3 °F 39.6 °F 30.18 in Calm     97% 0.00 in
15:18 40.5 °F 39.7 °F 30.18 in Calm     97% 0.00 in
15:24 40.5 °F 39.7 °F 30.18 in Calm     97% 0.01 in
15:29 40.5 °F 39.7 °F 30.18 in Calm     97% 0.01 in
15:34 40.5 °F 39.7 °F 30.19 in Calm     97% 0.01 in
15:39 40.5 °F 39.7 °F 30.19 in Calm     97% 0.01 in
15:44 40.5 °F 39.7 °F 30.19 in Calm     97% 0.01 in
15:49 40.5 °F 39.7 °F 30.19 in Calm     97% 0.01 in
15:54 40.5 °F 39.7 °F 30.19 in Calm     97% 0.01 in
15:59 40.3 °F 39.6 °F 30.19 in Calm     97% 0.01 in
16:04 40.3 °F 39.6 °F 30.19 in Calm     97% 0.01 in
16:09 40.3 °F 39.6 °F 30.19 in Calm     97% 0.01 in
16:14 40.3 °F 39.6 °F 30.19 in Calm     97% 0.01 in
16:19 40.3 °F 39.6 °F 30.19 in Calm     97% 0.01 in
16:24 40.3 °F 39.6 °F 30.19 in Calm     97% 0.00 in
16:29 40.3 °F 39.6 °F 30.19 in Calm     97% 0.00 in
16:34 40.3 °F 39.6 °F 30.19 in Calm     97% 0.00 in
16:39 40.3 °F 39.6 °F 30.19 in Calm     97% 0.00 in
16:44 40.3 °F 39.6 °F 30.19 in Calm     97% 0.00 in
16:49 40.3 °F 39.6 °F 30.19 in Calm     97% 0.00 in
16:54 40.3 °F 39.6 °F 30.19 in Calm     97% 0.00 in
16:59 40.3 °F 39.6 °F 30.19 in Calm     97% 0.00 in
17:04 40.3 °F 39.6 °F 30.19 in Calm     97% 0.00 in
17:09 40.3 °F 39.6 °F 30.20 in Calm     97% 0.00 in
17:14 40.3 °F 39.6 °F 30.20 in Calm     97% 0.00 in
17:19 40.3 °F 39.6 °F 30.20 in Calm     97% 0.00 in
17:24 40.3 °F 39.6 °F 30.20 in Calm     97% 0.00 in
17:29 40.3 °F 39.7 °F 30.20 in Calm     98% 0.00 in
17:34 40.3 °F 39.7 °F 30.20 in Calm     98% 0.00 in
17:39 40.3 °F 39.7 °F 30.20 in Calm     98% 0.00 in
17:44 40.3 °F 39.7 °F 30.20 in Calm     98% 0.00 in
17:49 40.3 °F 39.7 °F 30.21 in Calm     98% 0.00 in
17:54 40.3 °F 39.7 °F 30.21 in Calm     98% 0.00 in
17:59 40.3 °F 39.7 °F 30.21 in Calm     98% 0.00 in
18:04 40.3 °F 39.7 °F 30.21 in Calm     98% 0.00 in
18:09 40.3 °F 39.7 °F 30.22 in Calm     98% 0.00 in
18:14 40.3 °F 39.7 °F 30.22 in Calm     98% 0.00 in
18:19 40.5 °F 39.9 °F 30.22 in Calm     98% 0.00 in
18:24 40.3 °F 39.7 °F 30.22 in Calm     98% 0.00 in
18:29 40.5 °F 39.9 °F 30.23 in Calm     98% 0.00 in
18:34 40.5 °F 39.9 °F 30.23 in Calm     98% 0.00 in
18:39 40.3 °F 39.7 °F 30.23 in Calm     98% 0.00 in
18:44 40.5 °F 39.9 °F 30.23 in Calm     98% 0.00 in
18:49 40.5 °F 39.9 °F 30.23 in Calm     98% 0.00 in
18:54 40.5 °F 39.9 °F 30.23 in Calm     98% 0.00 in
18:59 40.5 °F 39.9 °F 30.24 in Calm     98% 0.00 in
19:04 40.5 °F 39.9 °F 30.24 in Calm     98% 0.00 in
19:09 40.5 °F 39.9 °F 30.24 in Calm     98% 0.00 in
19:14 40.5 °F 39.9 °F 30.24 in Calm     98% 0.00 in
19:19 40.6 °F 40.1 °F 30.24 in NNE 2.0 mph 2.0 mph 98% 0.00 in
19:24 40.5 °F 39.9 °F 30.24 in Calm     98% 0.00 in
19:29 40.6 °F 40.1 °F 30.24 in NNW 0.9 mph 2.0 mph 98% 0.00 in
19:34 40.6 °F 40.1 °F 30.24 in Calm   2.0 mph 98% 0.00 in
19:39 40.6 °F 40.1 °F 30.24 in Calm     98% 0.00 in
19:44 40.6 °F 40.1 °F 30.24 in Calm     98% 0.00 in
19:49 40.6 °F 40.1 °F 30.24 in Calm     98% 0.00 in
19:54 40.6 °F 40.1 °F 30.24 in Calm     98% 0.01 in
19:59 40.6 °F 40.1 °F 30.24 in Calm     98% 0.01 in
20:04 40.8 °F 40.3 °F 30.25 in Calm     98% 0.01 in
20:09 40.8 °F 40.3 °F 30.25 in Calm     98% 0.01 in
20:14 40.8 °F 40.3 °F 30.25 in Calm   1.0 mph 98% 0.01 in
20:19 40.8 °F 40.3 °F 30.25 in Calm     98% 0.01 in
20:24 40.8 °F 40.3 °F 30.25 in Calm     98% 0.01 in
20:29 40.8 °F 40.3 °F 30.25 in Calm     98% 0.01 in
20:34 40.8 °F 40.3 °F 30.25 in Calm     98% 0.01 in
20:39 40.8 °F 40.3 °F 30.25 in Calm     98% 0.01 in
20:44 40.8 °F 40.3 °F 30.25 in Calm     98% 0.01 in
20:49 40.8 °F 40.3 °F 30.25 in Calm     98% 0.01 in
20:54 40.8 °F 40.3 °F 30.25 in Calm     98% 0.00 in
20:59 40.8 °F 40.3 °F 30.25 in Calm     98% 0.00 in
21:04 40.8 °F 40.3 °F 30.26 in Calm     98% 0.00 in
21:09 40.8 °F 40.3 °F 30.26 in Calm     98% 0.00 in
21:13 40.8 °F 40.3 °F 30.26 in Calm     98% 0.00 in
21:19 40.8 °F 40.3 °F 30.26 in Calm     98% 0.00 in
21:24 41.0 °F 40.5 °F 30.26 in Calm     98% 0.00 in
21:29 41.2 °F 40.6 °F 30.26 in Calm     98% 0.00 in
21:34 41.2 °F 40.6 °F 30.26 in Calm     98% 0.00 in
21:39 41.2 °F 40.6 °F 30.26 in Calm     98% 0.00 in
21:44 41.2 °F 40.6 °F 30.26 in Calm     98% 0.00 in
21:49 41.2 °F 40.6 °F 30.26 in Calm     98% 0.00 in
21:54 41.4 °F 41.2 °F 30.26 in Calm     99% 0.00 in
21:59 41.4 °F 41.2 °F 30.26 in Calm     99% 0.00 in
22:04 41.4 °F 40.8 °F 30.26 in Calm     98% 0.00 in
22:08 41.4 °F 40.8 °F 30.26 in Calm     98% 0.00 in
22:14 41.5 °F 41.0 °F 30.26 in Calm     98% 0.00 in
22:19 41.5 °F 41.0 °F 30.26 in Calm     98% 0.00 in
22:24 41.5 °F 41.0 °F 30.26 in Calm   4.0 mph 98% 0.00 in
22:29 41.5 °F 41.0 °F 30.26 in Calm   2.0 mph 98% 0.00 in
22:34 41.5 °F 41.0 °F 30.26 in Calm     98% 0.00 in
22:39 41.5 °F 41.0 °F 30.26 in Calm     98% 0.00 in
22:44 41.5 °F 41.0 °F 30.26 in Calm     98% 0.00 in
22:49 41.5 °F 41.0 °F 30.27 in Calm     98% 0.00 in
22:54 41.7 °F 41.2 °F 30.27 in Calm     98% 0.00 in
22:59 41.5 °F 41.0 °F 30.27 in Calm   1.0 mph 98% 0.00 in
23:04 41.7 °F 41.2 °F 30.27 in Calm     98% 0.00 in
23:09 41.5 °F 41.0 °F 30.27 in Calm     98% 0.00 in
23:14 41.5 °F 41.0 °F 30.27 in Calm     98% 0.00 in
23:19 41.5 °F 41.0 °F 30.27 in Calm   1.0 mph 98% 0.00 in
23:24 41.5 °F 41.0 °F 30.27 in NNW 0.9 mph 2.0 mph 98% 0.00 in
23:29 41.5 °F 41.0 °F 30.27 in Calm   5.0 mph 98% 0.00 in
23:34 41.5 °F 41.0 °F 30.27 in Calm     98% 0.00 in
23:39 41.5 °F 41.0 °F 30.26 in Calm     98% 0.00 in
23:44 41.4 °F 40.8 °F 30.26 in Calm     98% 0.00 in
23:49 41.4 °F 40.8 °F 30.26 in Calm     98% 0.00 in
23:54 41.4 °F 40.8 °F 30.26 in Calm   2.0 mph 98% 0.00 in
23:59 41.4 °F 40.8 °F 30.26 in Calm     98% 0.00 in
Ellijay Weather
Compliments of Weather Underground - 2.5 mb